sensor_id;sensor_type;location;lat;lon;timestamp;P1;durP1;ratioP1;P2;durP2;ratioP2
75504;SDS011;64085;54.974;73.410;2023-03-21T06:06:06;22.35;;;10.48;;
75504;SDS011;64085;54.974;73.410;2023-03-21T06:08:32;19.25;;;10.90;;
75504;SDS011;64085;54.974;73.410;2023-03-21T06:10:58;25.08;;;10.57;;
75504;SDS011;64085;54.974;73.410;2023-03-21T06:13:23;17.98;;;9.85;;
75504;SDS011;64085;54.974;73.410;2023-03-21T06:15:49;15.05;;;9.02;;
75504;SDS011;64085;54.974;73.410;2023-03-21T06:18:15;17.40;;;9.48;;
75504;SDS011;64085;54.974;73.410;2023-03-21T06:20:40;16.15;;;9.05;;
75504;SDS011;64085;54.974;73.410;2023-03-21T06:23:06;18.65;;;9.32;;
75504;SDS011;64085;54.974;73.410;2023-03-21T06:25:32;21.15;;;10.20;;
75504;SDS011;64085;54.974;73.410;2023-03-21T06:27:57;17.88;;;7.82;;
75504;SDS011;64085;54.974;73.410;2023-03-21T06:30:23;13.70;;;7.45;;
75504;SDS011;64085;54.974;73.410;2023-03-21T06:32:48;16.73;;;9.30;;
75504;SDS011;64085;54.974;73.410;2023-03-21T06:35:14;19.08;;;9.77;;
75504;SDS011;64085;54.974;73.410;2023-03-21T06:37:40;25.38;;;10.70;;
75504;SDS011;64085;54.974;73.410;2023-03-21T06:40:07;17.48;;;8.70;;
75504;SDS011;64085;54.974;73.410;2023-03-21T06:42:33;16.77;;;7.95;;
75504;SDS011;64085;54.974;73.410;2023-03-21T06:44:59;11.63;;;5.93;;
75504;SDS011;64085;54.974;73.410;2023-03-21T06:47:25;15.57;;;7.05;;
75504;SDS011;64085;54.974;73.410;2023-03-21T06:49:51;15.55;;;6.50;;
75504;SDS011;64085;54.974;73.410;2023-03-21T06:52:16;11.60;;;5.22;;
75504;SDS011;64085;54.974;73.410;2023-03-21T06:54:42;13.98;;;6.90;;
75504;SDS011;64085;54.974;73.410;2023-03-21T06:57:07;11.30;;;4.97;;
75504;SDS011;64085;54.974;73.410;2023-03-21T06:59:33;11.00;;;4.70;;
75504;SDS011;64085;54.974;73.410;2023-03-21T07:02:00;13.02;;;5.25;;
75504;SDS011;64085;54.974;73.410;2023-03-21T07:04:25;8.50;;;4.85;;
75504;SDS011;64085;54.974;73.410;2023-03-21T07:06:51;9.65;;;4.05;;
75504;SDS011;64085;54.974;73.410;2023-03-21T07:09:17;7.53;;;4.70;;
75504;SDS011;64085;54.974;73.410;2023-03-21T07:11:45;10.02;;;4.88;;
75504;SDS011;64085;54.974;73.410;2023-03-21T07:14:11;24.23;;;6.55;;
75504;SDS011;64085;54.974;73.410;2023-03-21T07:16:37;12.88;;;4.78;;
75504;SDS011;64085;54.974;73.410;2023-03-21T07:19:03;13.48;;;5.38;;
75504;SDS011;64085;54.974;73.410;2023-03-21T07:21:28;11.63;;;5.18;;
75504;SDS011;64085;54.974;73.410;2023-03-21T07:23:54;15.95;;;6.18;;
75504;SDS011;64085;54.974;73.410;2023-03-21T07:26:20;8.65;;;4.20;;
75504;SDS011;64085;54.974;73.410;2023-03-21T07:28:46;10.15;;;4.70;;
75504;SDS011;64085;54.974;73.410;2023-03-21T07:31:13;15.43;;;6.18;;
75504;SDS011;64085;54.974;73.410;2023-03-21T07:33:41;11.40;;;4.60;;
75504;SDS011;64085;54.974;73.410;2023-03-21T07:36:14;10.23;;;3.90;;
75504;SDS011;64085;54.974;73.410;2023-03-21T07:38:40;11.85;;;5.63;;
75504;SDS011;64085;54.974;73.410;2023-03-21T07:41:10;10.05;;;3.92;;
75504;SDS011;64085;54.974;73.410;2023-03-21T07:43:36;5.65;;;2.72;;
75504;SDS011;64085;54.974;73.410;2023-03-21T07:46:05;4.88;;;2.92;;
75504;SDS011;64085;54.974;73.410;2023-03-21T07:48:30;10.43;;;4.03;;
75504;SDS011;64085;54.974;73.410;2023-03-21T07:50:56;10.25;;;3.63;;
75504;SDS011;64085;54.974;73.410;2023-03-21T07:53:22;10.88;;;3.95;;
75504;SDS011;64085;54.974;73.410;2023-03-21T07:55:49;7.00;;;3.22;;
75504;SDS011;64085;54.974;73.410;2023-03-21T07:58:20;9.27;;;3.45;;
75504;SDS011;64085;54.974;73.410;2023-03-21T08:00:48;6.65;;;2.78;;
75504;SDS011;64085;54.974;73.410;2023-03-21T08:03:14;8.85;;;3.25;;
75504;SDS011;64085;54.974;73.410;2023-03-21T08:05:40;5.40;;;3.42;;
75504;SDS011;64085;54.974;73.410;2023-03-21T08:08:06;8.23;;;3.85;;
75504;SDS011;64085;54.974;73.410;2023-03-21T08:10:32;8.40;;;3.17;;
75504;SDS011;64085;54.974;73.410;2023-03-21T08:12:58;14.35;;;4.95;;
75504;SDS011;64085;54.974;73.410;2023-03-21T08:15:24;9.60;;;3.67;;
75504;SDS011;64085;54.974;73.410;2023-03-21T08:17:50;7.80;;;3.28;;
75504;SDS011;64085;54.974;73.410;2023-03-21T08:20:17;7.53;;;3.45;;
75504;SDS011;64085;54.974;73.410;2023-03-21T08:22:45;4.15;;;2.67;;
75504;SDS011;64085;54.974;73.410;2023-03-21T08:25:12;8.60;;;3.80;;
75504;SDS011;64085;54.974;73.410;2023-03-21T08:27:42;5.57;;;3.53;;
75504;SDS011;64085;54.974;73.410;2023-03-21T08:30:09;8.55;;;5.18;;
75504;SDS011;64085;54.974;73.410;2023-03-21T08:32:37;10.30;;;3.35;;
75504;SDS011;64085;54.974;73.410;2023-03-21T08:35:04;7.05;;;2.85;;
75504;SDS011;64085;54.974;73.410;2023-03-21T08:37:34;7.22;;;3.38;;
75504;SDS011;64085;54.974;73.410;2023-03-21T08:40:04;7.68;;;3.10;;
75504;SDS011;64085;54.974;73.410;2023-03-21T08:42:38;5.45;;;3.42;;
75504;SDS011;64085;54.974;73.410;2023-03-21T08:47:31;4.80;;;2.65;;
75504;SDS011;64085;54.974;73.410;2023-03-21T08:49:57;6.20;;;2.25;;
75504;SDS011;64085;54.974;73.410;2023-03-21T08:52:23;9.45;;;3.65;;
75504;SDS011;64085;54.974;73.410;2023-03-21T08:54:50;10.80;;;4.38;;
75504;SDS011;64085;54.974;73.410;2023-03-21T08:57:15;8.38;;;3.67;;
75504;SDS011;64085;54.974;73.410;2023-03-21T08:59:41;4.40;;;2.90;;
75504;SDS011;64085;54.974;73.410;2023-03-21T09:02:07;6.22;;;3.13;;
75504;SDS011;64085;54.974;73.410;2023-03-21T09:04:33;6.57;;;3.83;;
75504;SDS011;64085;54.974;73.410;2023-03-21T09:06:59;4.78;;;1.83;;
75504;SDS011;64085;54.974;73.410;2023-03-21T09:09:29;5.95;;;2.80;;
75504;SDS011;64085;54.974;73.410;2023-03-21T09:11:55;4.32;;;1.92;;
75504;SDS011;64085;54.974;73.410;2023-03-21T09:14:21;8.52;;;2.65;;
75504;SDS011;64085;54.974;73.410;2023-03-21T09:16:46;8.30;;;3.80;;
75504;SDS011;64085;54.974;73.410;2023-03-21T09:19:12;7.85;;;2.97;;
75504;SDS011;64085;54.974;73.410;2023-03-21T09:21:38;7.05;;;2.88;;
75504;SDS011;64085;54.974;73.410;2023-03-21T09:24:04;7.50;;;4.07;;
75504;SDS011;64085;54.974;73.410;2023-03-21T09:26:31;5.63;;;2.53;;
75504;SDS011;64085;54.974;73.410;2023-03-21T09:28:57;3.97;;;2.42;;
75504;SDS011;64085;54.974;73.410;2023-03-21T09:31:25;8.63;;;2.75;;
75504;SDS011;64085;54.974;73.410;2023-03-21T09:33:54;5.85;;;2.75;;
75504;SDS011;64085;54.974;73.410;2023-03-21T09:36:22;6.88;;;2.40;;
75504;SDS011;64085;54.974;73.410;2023-03-21T09:38:49;7.28;;;4.22;;
75504;SDS011;64085;54.974;73.410;2023-03-21T09:49:05;4.57;;;1.83;;
75504;SDS011;64085;54.974;73.410;2023-03-21T09:51:36;5.15;;;2.58;;
75504;SDS011;64085;54.974;73.410;2023-03-21T09:54:26;5.70;;;2.60;;
75504;SDS011;64085;54.974;73.410;2023-03-21T09:57:15;3.80;;;2.05;;
75504;SDS011;64085;54.974;73.410;2023-03-21T10:00:10;6.13;;;1.73;;
75504;SDS011;64085;54.974;73.410;2023-03-21T10:02:48;4.28;;;2.35;;
75504;SDS011;64085;54.974;73.410;2023-03-21T10:05:22;3.70;;;2.47;;
75504;SDS011;64085;54.974;73.410;2023-03-21T10:10:26;2.85;;;1.60;;
75504;SDS011;64085;54.974;73.410;2023-03-21T10:12:54;5.57;;;3.35;;
75504;SDS011;64085;54.974;73.410;2023-03-21T10:15:21;4.03;;;1.67;;
75504;SDS011;64085;54.974;73.410;2023-03-21T10:17:59;4.45;;;2.35;;
75504;SDS011;64085;54.974;73.410;2023-03-21T10:20:35;8.43;;;4.00;;
75504;SDS011;64085;54.974;73.410;2023-03-21T10:23:04;6.60;;;3.97;;
75504;SDS011;64085;54.974;73.410;2023-03-21T10:25:33;2.65;;;2.15;;
75504;SDS011;64085;54.974;73.410;2023-03-21T10:28:05;5.25;;;2.67;;
75504;SDS011;64085;54.974;73.410;2023-03-21T10:30:43;5.38;;;2.78;;
75504;SDS011;64085;54.974;73.410;2023-03-21T10:33:22;4.60;;;2.80;;
75504;SDS011;64085;54.974;73.410;2023-03-21T10:35:55;7.22;;;3.28;;
75504;SDS011;64085;54.974;73.410;2023-03-21T10:38:26;5.20;;;2.78;;
75504;SDS011;64085;54.974;73.410;2023-03-21T10:40:53;5.03;;;2.45;;
75504;SDS011;64085;54.974;73.410;2023-03-21T10:46:32;6.15;;;2.17;;
75504;SDS011;64085;54.974;73.410;2023-03-21T10:48:52;4.95;;;2.17;;
75504;SDS011;64085;54.974;73.410;2023-03-21T10:51:19;7.60;;;3.20;;
75504;SDS011;64085;54.974;73.410;2023-03-21T10:53:55;2.13;;;1.42;;
75504;SDS011;64085;54.974;73.410;2023-03-21T10:56:25;4.80;;;1.63;;
75504;SDS011;64085;54.974;73.410;2023-03-21T10:58:54;6.30;;;1.80;;
75504;SDS011;64085;54.974;73.410;2023-03-21T11:01:42;9.43;;;4.18;;
75504;SDS011;64085;54.974;73.410;2023-03-21T11:04:13;4.25;;;2.60;;
75504;SDS011;64085;54.974;73.410;2023-03-21T11:06:43;8.95;;;4.78;;
75504;SDS011;64085;54.974;73.410;2023-03-21T11:09:18;4.72;;;2.15;;
75504;SDS011;64085;54.974;73.410;2023-03-21T11:11:54;5.25;;;2.22;;
75504;SDS011;64085;54.974;73.410;2023-03-21T11:14:31;8.38;;;3.33;;
75504;SDS011;64085;54.974;73.410;2023-03-21T11:16:58;5.57;;;2.05;;
75504;SDS011;64085;54.974;73.410;2023-03-21T11:19:34;8.35;;;2.88;;
75504;SDS011;64085;54.974;73.410;2023-03-21T11:22:04;4.43;;;2.47;;
75504;SDS011;64085;54.974;73.410;2023-03-21T11:24:31;7.97;;;3.90;;
75504;SDS011;64085;54.974;73.410;2023-03-21T11:26:59;8.15;;;3.83;;
75504;SDS011;64085;54.974;73.410;2023-03-21T11:29:34;2.88;;;1.98;;
75504;SDS011;64085;54.974;73.410;2023-03-21T11:32:18;5.70;;;3.58;;
75504;SDS011;64085;54.974;73.410;2023-03-21T11:37:24;4.55;;;2.50;;
75504;SDS011;64085;54.974;73.410;2023-03-21T11:40:34;4.00;;;1.88;;
75504;SDS011;64085;54.974;73.410;2023-03-21T11:42:56;5.57;;;2.03;;
75504;SDS011;64085;54.974;73.410;2023-03-21T11:47:57;5.10;;;2.17;;
75504;SDS011;64085;54.974;73.410;2023-03-21T11:56:32;5.25;;;2.22;;
75504;SDS011;64085;54.974;73.410;2023-03-21T11:59:17;2.90;;;1.48;;
75504;SDS011;64085;54.974;73.410;2023-03-21T12:01:57;2.90;;;1.55;;
75504;SDS011;64085;54.974;73.410;2023-03-21T12:18:56;4.20;;;2.05;;
75504;SDS011;64085;54.974;73.410;2023-03-21T12:24:54;3.85;;;2.83;;
75504;SDS011;64085;54.974;73.410;2023-03-21T12:27:49;2.47;;;1.55;;
75504;SDS011;64085;54.974;73.410;2023-03-21T12:30:37;5.65;;;2.30;;
75504;SDS011;64085;54.974;73.410;2023-03-21T12:35:51;7.03;;;3.15;;
75504;SDS011;64085;54.974;73.410;2023-03-21T12:38:22;6.75;;;2.92;;
75504;SDS011;64085;54.974;73.410;2023-03-21T12:40:56;11.13;;;4.53;;
75504;SDS011;64085;54.974;73.410;2023-03-21T12:46:42;4.43;;;2.15;;
75504;SDS011;64085;54.974;73.410;2023-03-21T12:49:21;2.90;;;1.55;;
75504;SDS011;64085;54.974;73.410;2023-03-21T12:52:02;8.77;;;3.17;;
75504;SDS011;64085;54.974;73.410;2023-03-21T12:54:34;5.20;;;2.50;;
75504;SDS011;64085;54.974;73.410;2023-03-21T12:57:20;6.35;;;2.35;;
75504;SDS011;64085;54.974;73.410;2023-03-21T12:59:55;6.72;;;2.13;;
75504;SDS011;64085;54.974;73.410;2023-03-21T13:02:47;5.20;;;2.78;;
75504;SDS011;64085;54.974;73.410;2023-03-21T13:05:36;8.70;;;3.63;;
75504;SDS011;64085;54.974;73.410;2023-03-21T13:11:01;13.85;;;5.00;;
75504;SDS011;64085;54.974;73.410;2023-03-21T13:16:05;7.82;;;4.05;;
75504;SDS011;64085;54.974;73.410;2023-03-21T13:18:49;11.27;;;4.93;;
75504;SDS011;64085;54.974;73.410;2023-03-21T13:21:21;14.10;;;5.85;;
75504;SDS011;64085;54.974;73.410;2023-03-21T13:24:31;9.45;;;3.85;;
75504;SDS011;64085;54.974;73.410;2023-03-21T13:29:30;11.52;;;5.22;;
75504;SDS011;64085;54.974;73.410;2023-03-21T13:32:05;10.30;;;4.10;;
75504;SDS011;64085;54.974;73.410;2023-03-21T13:34:33;5.80;;;4.30;;
75504;SDS011;64085;54.974;73.410;2023-03-21T13:37:02;15.32;;;5.53;;
75504;SDS011;64085;54.974;73.410;2023-03-21T13:39:28;7.60;;;3.58;;
75504;SDS011;64085;54.974;73.410;2023-03-21T13:41:55;8.88;;;3.95;;
75504;SDS011;64085;54.974;73.410;2023-03-21T13:44:38;2.92;;;2.65;;
75504;SDS011;64085;54.974;73.410;2023-03-21T13:52:42;8.50;;;3.60;;
75504;SDS011;64085;54.974;73.410;2023-03-21T13:55:28;8.00;;;4.38;;
75504;SDS011;64085;54.974;73.410;2023-03-21T13:58:00;7.43;;;3.55;;
75504;SDS011;64085;54.974;73.410;2023-03-21T14:03:55;8.45;;;3.35;;
75504;SDS011;64085;54.974;73.410;2023-03-21T14:09:20;5.47;;;2.53;;
75504;SDS011;64085;54.974;73.410;2023-03-21T14:11:51;9.23;;;3.80;;
75504;SDS011;64085;54.974;73.410;2023-03-21T14:14:20;6.03;;;3.90;;
75504;SDS011;64085;54.974;73.410;2023-03-21T14:16:48;6.15;;;3.97;;
75504;SDS011;64085;54.974;73.410;2023-03-21T14:19:17;8.65;;;4.70;;
75504;SDS011;64085;54.974;73.410;2023-03-21T14:21:47;5.07;;;4.00;;
75504;SDS011;64085;54.974;73.410;2023-03-21T14:24:16;3.65;;;2.08;;
75504;SDS011;64085;54.974;73.410;2023-03-21T14:26:44;5.90;;;4.10;;
75504;SDS011;64085;54.974;73.410;2023-03-21T14:29:35;9.02;;;4.95;;
75504;SDS011;64085;54.974;73.410;2023-03-21T14:32:00;10.40;;;4.00;;
75504;SDS011;64085;54.974;73.410;2023-03-21T14:34:28;8.30;;;3.83;;
75504;SDS011;64085;54.974;73.410;2023-03-21T14:36:57;10.52;;;5.07;;
75504;SDS011;64085;54.974;73.410;2023-03-21T14:39:25;4.60;;;2.28;;
75504;SDS011;64085;54.974;73.410;2023-03-21T14:41:53;16.65;;;7.47;;
75504;SDS011;64085;54.974;73.410;2023-03-21T14:44:24;13.77;;;7.43;;
75504;SDS011;64085;54.974;73.410;2023-03-21T14:47:05;13.05;;;5.25;;
75504;SDS011;64085;54.974;73.410;2023-03-21T14:49:33;3.20;;;2.33;;
75504;SDS011;64085;54.974;73.410;2023-03-21T14:52:02;10.23;;;4.72;;
75504;SDS011;64085;54.974;73.410;2023-03-21T14:54:30;10.52;;;6.00;;
75504;SDS011;64085;54.974;73.410;2023-03-21T14:57:01;5.05;;;3.50;;
75504;SDS011;64085;54.974;73.410;2023-03-21T14:59:33;5.82;;;1.83;;
75504;SDS011;64085;54.974;73.410;2023-03-21T15:02:19;7.25;;;3.85;;
75504;SDS011;64085;54.974;73.410;2023-03-21T15:04:52;6.72;;;2.65;;
75504;SDS011;64085;54.974;73.410;2023-03-21T15:07:28;17.17;;;7.15;;
75504;SDS011;64085;54.974;73.410;2023-03-21T15:09:58;22.52;;;7.93;;
75504;SDS011;64085;54.974;73.410;2023-03-21T15:12:28;19.70;;;8.40;;
75504;SDS011;64085;54.974;73.410;2023-03-21T15:14:54;15.35;;;4.95;;
75504;SDS011;64085;54.974;73.410;2023-03-21T15:17:20;13.20;;;6.47;;
75504;SDS011;64085;54.974;73.410;2023-03-21T15:19:48;13.27;;;3.10;;
75504;SDS011;64085;54.974;73.410;2023-03-21T15:22:29;18.30;;;6.88;;
75504;SDS011;64085;54.974;73.410;2023-03-21T15:25:04;3.92;;;2.15;;
75504;SDS011;64085;54.974;73.410;2023-03-21T15:27:39;6.00;;;3.20;;
75504;SDS011;64085;54.974;73.410;2023-03-21T15:30:06;13.68;;;4.85;;
75504;SDS011;64085;54.974;73.410;2023-03-21T15:32:48;7.32;;;2.88;;
75504;SDS011;64085;54.974;73.410;2023-03-21T15:35:16;5.10;;;1.33;;
75504;SDS011;64085;54.974;73.410;2023-03-21T15:37:53;13.50;;;4.45;;
75504;SDS011;64085;54.974;73.410;2023-03-21T15:42:48;15.10;;;3.72;;
75504;SDS011;64085;54.974;73.410;2023-03-21T15:45:19;6.35;;;3.15;;
75504;SDS011;64085;54.974;73.410;2023-03-21T15:50:56;7.40;;;3.75;;
75504;SDS011;64085;54.974;73.410;2023-03-21T15:53:05;6.13;;;2.88;;
75504;SDS011;64085;54.974;73.410;2023-03-21T15:55:49;10.07;;;3.05;;
75504;SDS011;64085;54.974;73.410;2023-03-21T15:58:27;7.50;;;2.92;;
75504;SDS011;64085;54.974;73.410;2023-03-21T16:01:00;14.02;;;6.25;;
75504;SDS011;64085;54.974;73.410;2023-03-21T16:03:36;9.57;;;4.40;;
75504;SDS011;64085;54.974;73.410;2023-03-21T16:13:41;12.98;;;3.85;;
75504;SDS011;64085;54.974;73.410;2023-03-21T16:16:09;8.57;;;4.28;;
75504;SDS011;64085;54.974;73.410;2023-03-21T16:18:40;8.05;;;3.58;;
75504;SDS011;64085;54.974;73.410;2023-03-21T16:21:08;3.83;;;2.35;;
75504;SDS011;64085;54.974;73.410;2023-03-21T16:23:36;7.85;;;5.40;;
75504;SDS011;64085;54.974;73.410;2023-03-21T16:26:02;4.40;;;1.80;;
75504;SDS011;64085;54.974;73.410;2023-03-21T16:28:29;3.83;;;2.55;;
75504;SDS011;64085;54.974;73.410;2023-03-21T16:30:55;7.88;;;4.32;;
75504;SDS011;64085;54.974;73.410;2023-03-21T16:33:21;4.95;;;2.08;;
75504;SDS011;64085;54.974;73.410;2023-03-21T16:35:49;6.45;;;3.70;;
75504;SDS011;64085;54.974;73.410;2023-03-21T16:38:16;8.27;;;3.47;;
75504;SDS011;64085;54.974;73.410;2023-03-21T16:40:42;7.25;;;2.97;;
75504;SDS011;64085;54.974;73.410;2023-03-21T16:43:08;14.38;;;4.82;;
75504;SDS011;64085;54.974;73.410;2023-03-21T16:45:35;8.73;;;3.78;;
75504;SDS011;64085;54.974;73.410;2023-03-21T16:48:01;8.52;;;4.28;;
75504;SDS011;64085;54.974;73.410;2023-03-21T16:52:58;5.90;;;2.63;;
75504;SDS011;64085;54.974;73.410;2023-03-21T16:55:24;6.13;;;2.55;;
75504;SDS011;64085;54.974;73.410;2023-03-21T16:57:51;7.32;;;3.25;;
75504;SDS011;64085;54.974;73.410;2023-03-21T17:00:19;5.25;;;2.85;;
75504;SDS011;64085;54.974;73.410;2023-03-21T17:02:47;9.27;;;3.28;;
75504;SDS011;64085;54.974;73.410;2023-03-21T17:05:15;4.97;;;2.20;;
75504;SDS011;64085;54.974;73.410;2023-03-21T17:07:41;10.65;;;5.05;;
75504;SDS011;64085;54.974;73.410;2023-03-21T17:10:26;8.23;;;4.47;;
75504;SDS011;64085;54.974;73.410;2023-03-21T17:12:53;5.25;;;2.20;;
75504;SDS011;64085;54.974;73.410;2023-03-21T17:15:19;5.43;;;2.83;;
75504;SDS011;64085;54.974;73.410;2023-03-21T17:17:47;7.90;;;3.53;;
75504;SDS011;64085;54.974;73.410;2023-03-21T17:20:30;10.38;;;2.85;;
75504;SDS011;64085;54.974;73.410;2023-03-21T17:22:58;7.75;;;2.50;;
75504;SDS011;64085;54.974;73.410;2023-03-21T17:25:24;7.30;;;3.05;;
75504;SDS011;64085;54.974;73.410;2023-03-21T17:27:51;5.22;;;2.88;;
75504;SDS011;64085;54.974;73.410;2023-03-21T17:32:55;4.68;;;2.00;;
75504;SDS011;64085;54.974;73.410;2023-03-21T17:35:21;5.07;;;2.20;;
75504;SDS011;64085;54.974;73.410;2023-03-21T17:37:48;9.75;;;3.50;;
75504;SDS011;64085;54.974;73.410;2023-03-21T17:40:16;3.78;;;2.03;;
75504;SDS011;64085;54.974;73.410;2023-03-21T17:42:46;9.20;;;2.70;;
75504;SDS011;64085;54.974;73.410;2023-03-21T17:45:13;9.75;;;5.00;;
75504;SDS011;64085;54.974;73.410;2023-03-21T17:47:39;11.20;;;4.03;;
75504;SDS011;64085;54.974;73.410;2023-03-21T17:50:11;4.28;;;2.55;;
75504;SDS011;64085;54.974;73.410;2023-03-21T17:52:58;4.40;;;2.58;;
75504;SDS011;64085;54.974;73.410;2023-03-21T17:55:25;8.00;;;2.90;;
75504;SDS011;64085;54.974;73.410;2023-03-21T17:57:51;8.27;;;3.80;;
75504;SDS011;64085;54.974;73.410;2023-03-21T18:00:18;6.20;;;3.45;;
75504;SDS011;64085;54.974;73.410;2023-03-21T18:05:12;5.03;;;2.40;;
75504;SDS011;64085;54.974;73.410;2023-03-21T18:07:38;12.52;;;5.65;;
75504;SDS011;64085;54.974;73.410;2023-03-21T18:10:14;2.75;;;1.33;;
75504;SDS011;64085;54.974;73.410;2023-03-21T18:12:42;9.45;;;3.10;;
75504;SDS011;64085;54.974;73.410;2023-03-21T18:15:11;4.38;;;2.13;;
75504;SDS011;64085;54.974;73.410;2023-03-21T18:17:39;7.60;;;2.22;;
75504;SDS011;64085;54.974;73.410;2023-03-21T18:20:05;7.82;;;3.15;;
75504;SDS011;64085;54.974;73.410;2023-03-21T18:22:34;5.88;;;4.15;;
75504;SDS011;64085;54.974;73.410;2023-03-21T18:25:01;5.68;;;2.90;;
75504;SDS011;64085;54.974;73.410;2023-03-21T18:27:30;7.35;;;4.68;;
75504;SDS011;64085;54.974;73.410;2023-03-21T18:29:56;5.18;;;1.45;;
75504;SDS011;64085;54.974;73.410;2023-03-21T18:32:22;14.65;;;4.50;;
75504;SDS011;64085;54.974;73.410;2023-03-21T18:34:50;8.25;;;3.22;;
75504;SDS011;64085;54.974;73.410;2023-03-21T18:37:16;6.95;;;3.22;;
75504;SDS011;64085;54.974;73.410;2023-03-21T18:39:42;7.13;;;3.05;;
75504;SDS011;64085;54.974;73.410;2023-03-21T18:42:10;9.10;;;3.88;;
75504;SDS011;64085;54.974;73.410;2023-03-21T18:44:37;8.18;;;2.33;;
75504;SDS011;64085;54.974;73.410;2023-03-21T18:47:06;8.73;;;2.38;;
75504;SDS011;64085;54.974;73.410;2023-03-21T18:49:32;4.13;;;1.85;;
75504;SDS011;64085;54.974;73.410;2023-03-21T18:51:58;5.45;;;3.00;;
75504;SDS011;64085;54.974;73.410;2023-03-21T18:54:24;7.32;;;3.25;;
75504;SDS011;64085;54.974;73.410;2023-03-21T18:56:50;8.48;;;2.80;;
75504;SDS011;64085;54.974;73.410;2023-03-21T18:59:17;8.38;;;3.03;;
75504;SDS011;64085;54.974;73.410;2023-03-21T19:01:47;9.45;;;3.78;;
75504;SDS011;64085;54.974;73.410;2023-03-21T19:04:14;7.53;;;3.28;;
75504;SDS011;64085;54.974;73.410;2023-03-21T19:06:40;4.88;;;2.42;;
75504;SDS011;64085;54.974;73.410;2023-03-21T19:09:07;4.35;;;2.60;;
75504;SDS011;64085;54.974;73.410;2023-03-21T19:11:33;7.20;;;3.10;;
75504;SDS011;64085;54.974;73.410;2023-03-21T19:14:00;6.10;;;3.25;;
75504;SDS011;64085;54.974;73.410;2023-03-21T19:16:26;3.78;;;2.08;;
75504;SDS011;64085;54.974;73.410;2023-03-21T19:18:52;6.30;;;3.95;;
75504;SDS011;64085;54.974;73.410;2023-03-21T19:21:18;6.72;;;2.67;;
75504;SDS011;64085;54.974;73.410;2023-03-21T19:23:45;4.65;;;3.13;;
75504;SDS011;64085;54.974;73.410;2023-03-21T19:26:11;6.57;;;3.03;;
75504;SDS011;64085;54.974;73.410;2023-03-21T19:28:37;4.97;;;2.92;;
75504;SDS011;64085;54.974;73.410;2023-03-21T19:31:04;4.90;;;2.20;;
75504;SDS011;64085;54.974;73.410;2023-03-21T19:33:31;11.45;;;3.10;;
75504;SDS011;64085;54.974;73.410;2023-03-21T19:35:58;4.70;;;2.55;;
75504;SDS011;64085;54.974;73.410;2023-03-21T19:38:23;5.88;;;2.78;;
75504;SDS011;64085;54.974;73.410;2023-03-21T19:40:50;7.03;;;1.92;;
75504;SDS011;64085;54.974;73.410;2023-03-21T19:43:16;4.68;;;1.80;;
75504;SDS011;64085;54.974;73.410;2023-03-21T19:45:45;4.85;;;2.58;;
75504;SDS011;64085;54.974;73.410;2023-03-21T19:48:11;10.65;;;3.63;;
75504;SDS011;64085;54.974;73.410;2023-03-21T19:50:37;5.43;;;2.60;;
75504;SDS011;64085;54.974;73.410;2023-03-21T19:53:03;4.15;;;2.45;;
75504;SDS011;64085;54.974;73.410;2023-03-21T19:55:29;10.70;;;2.30;;
75504;SDS011;64085;54.974;73.410;2023-03-21T19:57:55;3.75;;;2.53;;
75504;SDS011;64085;54.974;73.410;2023-03-21T20:00:21;4.78;;;1.95;;
75504;SDS011;64085;54.974;73.410;2023-03-21T20:02:48;4.00;;;2.55;;
75504;SDS011;64085;54.974;73.410;2023-03-21T20:05:15;2.72;;;1.55;;
75504;SDS011;64085;54.974;73.410;2023-03-21T20:07:43;5.57;;;2.17;;
75504;SDS011;64085;54.974;73.410;2023-03-21T20:10:09;6.75;;;2.55;;
75504;SDS011;64085;54.974;73.410;2023-03-21T20:12:35;6.15;;;2.67;;
75504;SDS011;64085;54.974;73.410;2023-03-21T20:15:01;7.68;;;3.17;;
75504;SDS011;64085;54.974;73.410;2023-03-21T20:17:28;4.53;;;2.85;;
75504;SDS011;64085;54.974;73.410;2023-03-21T20:19:55;3.20;;;1.55;;
75504;SDS011;64085;54.974;73.410;2023-03-21T20:22:22;6.57;;;2.25;;
75504;SDS011;64085;54.974;73.410;2023-03-21T20:24:48;6.22;;;1.80;;
75504;SDS011;64085;54.974;73.410;2023-03-21T20:27:15;2.90;;;1.55;;
75504;SDS011;64085;54.974;73.410;2023-03-21T20:29:50;6.10;;;2.95;;
75504;SDS011;64085;54.974;73.410;2023-03-21T20:32:16;7.65;;;4.95;;
75504;SDS011;64085;54.974;73.410;2023-03-21T20:34:42;4.75;;;2.30;;
75504;SDS011;64085;54.974;73.410;2023-03-21T20:37:09;6.43;;;2.72;;
75504;SDS011;64085;54.974;73.410;2023-03-21T20:39:35;4.07;;;2.92;;
75504;SDS011;64085;54.974;73.410;2023-03-21T20:42:00;4.28;;;1.40;;
75504;SDS011;64085;54.974;73.410;2023-03-21T20:44:27;4.90;;;1.70;;
75504;SDS011;64085;54.974;73.410;2023-03-21T20:46:53;4.47;;;2.30;;
75504;SDS011;64085;54.974;73.410;2023-03-21T20:49:18;2.97;;;1.48;;
75504;SDS011;64085;54.974;73.410;2023-03-21T20:51:47;3.53;;;1.92;;
75504;SDS011;64085;54.974;73.410;2023-03-21T20:54:16;3.78;;;2.15;;
75504;SDS011;64085;54.974;73.410;2023-03-21T20:56:42;3.80;;;2.05;;
75504;SDS011;64085;54.974;73.410;2023-03-21T20:59:08;6.05;;;2.45;;
75504;SDS011;64085;54.974;73.410;2023-03-21T21:04:02;4.82;;;2.33;;
75504;SDS011;64085;54.974;73.410;2023-03-21T21:06:27;2.72;;;1.20;;
75504;SDS011;64085;54.974;73.410;2023-03-21T21:08:53;2.00;;;1.80;;
75504;SDS011;64085;54.974;73.410;2023-03-21T21:11:24;4.57;;;3.03;;
75504;SDS011;64085;54.974;73.410;2023-03-21T21:13:51;3.88;;;2.47;;
75504;SDS011;64085;54.974;73.410;2023-03-21T21:16:19;5.97;;;3.28;;
75504;SDS011;64085;54.974;73.410;2023-03-21T21:18:45;3.53;;;2.67;;
75504;SDS011;64085;54.974;73.410;2023-03-21T21:21:11;7.30;;;3.15;;
75504;SDS011;64085;54.974;73.410;2023-03-21T21:23:38;3.10;;;2.42;;
75504;SDS011;64085;54.974;73.410;2023-03-21T21:26:05;10.05;;;5.65;;
75504;SDS011;64085;54.974;73.410;2023-03-21T21:28:32;4.60;;;2.80;;
75504;SDS011;64085;54.974;73.410;2023-03-21T21:31:15;6.55;;;3.33;;
75504;SDS011;64085;54.974;73.410;2023-03-21T21:33:42;4.85;;;2.47;;
75504;SDS011;64085;54.974;73.410;2023-03-21T21:36:11;4.82;;;2.75;;
75504;SDS011;64085;54.974;73.410;2023-03-21T21:38:37;4.28;;;2.08;;
75504;SDS011;64085;54.974;73.410;2023-03-21T21:41:07;1.98;;;1.60;;
75504;SDS011;64085;54.974;73.410;2023-03-21T21:43:38;6.20;;;2.17;;
75504;SDS011;64085;54.974;73.410;2023-03-21T21:46:04;4.35;;;2.00;;
75504;SDS011;64085;54.974;73.410;2023-03-21T21:48:31;0.57;;;0.45;;
75504;SDS011;64085;54.974;73.410;2023-03-21T21:50:57;6.60;;;2.97;;
75504;SDS011;64085;54.974;73.410;2023-03-21T21:53:24;4.85;;;1.88;;
75504;SDS011;64085;54.974;73.410;2023-03-21T21:55:52;3.25;;;2.08;;
75504;SDS011;64085;54.974;73.410;2023-03-21T21:58:20;4.50;;;2.25;;
75504;SDS011;64085;54.974;73.410;2023-03-21T22:00:47;3.50;;;1.70;;
75504;SDS011;64085;54.974;73.410;2023-03-21T22:03:14;2.72;;;1.52;;
75504;SDS011;64085;54.974;73.410;2023-03-21T22:05:46;3.83;;;1.65;;
75504;SDS011;64085;54.974;73.410;2023-03-21T22:08:17;3.33;;;2.05;;
75504;SDS011;64085;54.974;73.410;2023-03-21T22:10:44;3.50;;;1.38;;
75504;SDS011;64085;54.974;73.410;2023-03-21T22:13:11;6.03;;;1.63;;
75504;SDS011;64085;54.974;73.410;2023-03-21T22:15:37;1.58;;;1.20;;
75504;SDS011;64085;54.974;73.410;2023-03-21T22:18:03;3.80;;;2.55;;
75504;SDS011;64085;54.974;73.410;2023-03-21T22:20:29;3.00;;;1.33;;
75504;SDS011;64085;54.974;73.410;2023-03-21T22:22:54;3.22;;;1.08;;